createdAt,value
2019-01-29T00:00:15.683Z,0.50
2019-01-29T00:02:44.230Z,0.50
2019-01-29T00:05:12.611Z,0.50
2019-01-29T00:07:41.326Z,0.40
2019-01-29T00:10:09.696Z,0.40
2019-01-29T00:12:38.060Z,0.40
2019-01-29T00:15:09.729Z,0.30
2019-01-29T00:17:38.065Z,0.30
2019-01-29T00:20:08.867Z,0.20
2019-01-29T00:22:37.259Z,0.30
2019-01-29T00:25:07.263Z,0.30
2019-01-29T00:27:35.739Z,0.40
2019-01-29T00:30:07.280Z,0.40
2019-01-29T00:32:36.300Z,0.50
2019-01-29T00:35:06.307Z,0.50
2019-01-29T00:37:35.024Z,0.50
2019-01-29T00:40:05.424Z,0.60
2019-01-29T00:42:33.798Z,0.50
2019-01-29T00:45:02.201Z,0.60
2019-01-29T00:47:30.559Z,0.60
2019-01-29T00:49:58.932Z,0.60
2019-01-29T00:52:28.751Z,0.60
2019-01-29T00:54:57.121Z,0.60
2019-01-29T00:57:25.492Z,0.60
2019-01-29T00:59:54.261Z,0.60
2019-01-29T01:02:23.052Z,0.60
2019-01-29T01:04:51.420Z,0.60
2019-01-29T01:07:19.815Z,0.60
2019-01-29T01:09:56.707Z,0.60
2019-01-29T01:12:18.192Z,0.60
2019-01-29T01:14:47.854Z,0.60
2019-01-29T01:17:16.223Z,0.60
2019-01-29T01:19:44.591Z,0.60
2019-01-29T01:22:13.287Z,0.60
2019-01-29T01:24:41.643Z,0.50
2019-01-29T01:27:10.020Z,0.50
2019-01-29T01:29:38.429Z,0.50
2019-01-29T01:32:06.787Z,0.50
2019-01-29T01:34:36.128Z,0.50
2019-01-29T01:37:04.816Z,0.60
2019-01-29T01:39:33.174Z,0.60
2019-01-29T01:42:01.536Z,0.60
2019-01-29T01:44:29.948Z,0.60
2019-01-29T01:46:58.435Z,0.60
2019-01-29T01:49:26.807Z,0.60
2019-01-29T01:51:56.195Z,0.60
2019-01-29T01:54:24.563Z,0.60
2019-01-29T01:56:52.922Z,0.60
2019-01-29T01:59:21.329Z,0.60
2019-01-29T02:01:49.691Z,0.60
2019-01-29T02:04:18.055Z,0.60
2019-01-29T02:06:46.459Z,0.60
2019-01-29T02:09:15.119Z,0.60
2019-01-29T02:11:43.487Z,0.60
2019-01-29T02:14:12.567Z,0.60
2019-01-29T02:16:40.932Z,0.60
2019-01-29T02:19:09.299Z,0.60
2019-01-29T02:21:37.720Z,0.60
2019-01-29T02:24:06.088Z,0.60
2019-01-29T02:26:34.456Z,0.50
2019-01-29T02:29:03.206Z,0.50
2019-01-29T02:31:31.576Z,0.50
2019-01-29T02:33:59.942Z,0.50
2019-01-29T02:36:29.911Z,0.50
2019-01-29T02:38:58.315Z,0.60
2019-01-29T02:41:26.674Z,0.60
2019-01-29T02:43:55.083Z,0.60
2019-01-29T02:46:23.442Z,0.60
2019-01-29T02:48:51.737Z,0.70
2019-01-29T02:51:20.135Z,0.70
2019-01-29T02:53:48.504Z,0.70
2019-01-29T02:56:16.869Z,0.70
2019-01-29T02:58:45.275Z,0.70
2019-01-29T03:01:13.654Z,0.70
2019-01-29T03:03:42.025Z,0.70
2019-01-29T03:06:10.426Z,0.70
2019-01-29T03:08:38.796Z,0.70
2019-01-29T03:11:07.460Z,0.70
2019-01-29T03:13:37.336Z,0.80
2019-01-29T03:16:05.695Z,0.80
2019-01-29T03:18:34.342Z,0.80
2019-01-29T03:21:02.736Z,0.80
2019-01-29T03:23:31.120Z,0.70
2019-01-29T03:25:59.474Z,0.70
2019-01-29T03:28:27.871Z,0.70
2019-01-29T03:30:56.234Z,0.70
2019-01-29T03:33:24.596Z,0.70
2019-01-29T03:35:54.122Z,0.70
2019-01-29T03:38:23.156Z,0.70
2019-01-29T03:40:51.524Z,0.70
2019-01-29T03:43:19.928Z,0.70
2019-01-29T03:45:48.607Z,0.70
2019-01-29T03:48:16.981Z,0.70
2019-01-29T03:50:45.388Z,0.70
2019-01-29T03:53:13.761Z,0.70
2019-01-29T03:55:42.137Z,0.70
2019-01-29T03:58:11.194Z,0.70
2019-01-29T04:00:39.491Z,0.70
2019-01-29T04:03:07.861Z,0.70
2019-01-29T04:05:36.380Z,0.70
2019-01-29T04:08:04.751Z,0.70
2019-01-29T04:10:33.137Z,0.70
2019-01-29T04:13:01.539Z,0.70
2019-01-29T04:15:29.900Z,0.60
2019-01-29T04:17:58.273Z,0.70
2019-01-29T04:20:26.676Z,0.70
2019-01-29T04:22:55.042Z,0.70
2019-01-29T04:25:23.409Z,0.70
2019-01-29T04:27:51.807Z,0.70
2019-01-29T04:30:21.819Z,0.70
2019-01-29T04:32:50.188Z,0.70
2019-01-29T04:35:19.478Z,0.70
2019-01-29T04:37:47.847Z,0.70
2019-01-29T04:40:19.810Z,0.70
2019-01-29T04:42:48.608Z,0.70
2019-01-29T04:45:17.815Z,0.70
2019-01-29T04:47:46.303Z,0.70
2019-01-29T04:50:17.294Z,0.70
2019-01-29T04:52:45.658Z,0.70
2019-01-29T04:55:15.803Z,0.70
2019-01-29T04:57:44.874Z,0.70
2019-01-29T05:00:18.604Z,0.70
2019-01-29T05:02:46.995Z,0.70
2019-01-29T05:05:15.392Z,0.70
2019-01-29T05:07:43.755Z,0.70
2019-01-29T05:10:14.169Z,0.80
2019-01-29T05:12:42.564Z,0.70
2019-01-29T05:15:13.278Z,0.70
2019-01-29T05:17:41.635Z,0.70
2019-01-29T05:20:18.650Z,0.70
2019-01-29T05:22:47.007Z,0.70
2019-01-29T05:25:15.738Z,0.70
2019-01-29T05:27:44.153Z,0.70
2019-01-29T05:30:14.978Z,0.70
2019-01-29T05:32:43.658Z,0.70
2019-01-29T05:35:12.060Z,0.80
2019-01-29T05:37:40.428Z,0.80
2019-01-29T05:40:20.726Z,0.80
2019-01-29T05:42:50.096Z,0.80
2019-01-29T05:45:20.107Z,0.70
2019-01-29T05:47:48.537Z,0.80
2019-01-29T05:50:17.476Z,0.70
2019-01-29T05:52:45.916Z,0.80
2019-01-29T05:55:15.692Z,0.80
2019-01-29T05:57:44.112Z,0.80
2019-01-29T06:00:18.810Z,0.80
2019-01-29T06:02:48.679Z,0.80
2019-01-29T06:05:17.508Z,0.80
2019-01-29T06:07:46.195Z,0.80
2019-01-29T06:10:17.722Z,0.80
2019-01-29T06:12:46.087Z,0.80
2019-01-29T06:15:19.530Z,0.80
2019-01-29T06:17:47.928Z,0.80
2019-01-29T06:20:24.491Z,0.80
2019-01-29T06:22:53.289Z,0.80
2019-01-29T06:25:21.978Z,0.90
2019-01-29T06:27:50.338Z,0.90
2019-01-29T06:30:21.170Z,0.90
2019-01-29T06:32:49.543Z,0.90
2019-01-29T06:35:18.751Z,0.90
2019-01-29T06:37:47.309Z,0.90
2019-01-29T06:40:17.977Z,0.90
2019-01-29T06:42:46.276Z,0.90
2019-01-29T06:45:18.018Z,1.00
2019-01-29T06:47:46.735Z,0.90
2019-01-29T06:50:20.158Z,0.90
2019-01-29T06:52:49.036Z,0.90
2019-01-29T06:55:18.974Z,1.00
2019-01-29T06:57:55.039Z,1.00
2019-01-29T07:00:22.719Z,1.00
2019-01-29T07:02:51.101Z,1.10
2019-01-29T07:05:19.470Z,1.00
2019-01-29T07:07:48.256Z,1.00
2019-01-29T07:10:19.131Z,1.00
2019-01-29T07:12:47.587Z,1.00
2019-01-29T07:15:37.180Z,1.00
2019-01-29T07:18:07.194Z,1.00
2019-01-29T07:20:35.559Z,1.00
2019-01-29T07:23:04.070Z,1.00
2019-01-29T07:25:32.370Z,1.00
2019-01-29T07:28:00.736Z,1.00
2019-01-29T07:30:29.140Z,1.00
2019-01-29T07:32:57.845Z,1.00
2019-01-29T07:35:26.211Z,1.00
2019-01-29T07:37:54.783Z,1.00
2019-01-29T07:40:23.153Z,1.10
2019-01-29T07:42:51.522Z,1.10
2019-01-29T07:45:19.991Z,1.10
2019-01-29T07:47:49.779Z,1.10
2019-01-29T07:50:18.153Z,1.10
2019-01-29T07:52:46.852Z,1.10
2019-01-29T07:55:15.228Z,1.00
2019-01-29T07:57:43.633Z,1.00
2019-01-29T08:00:14.569Z,0.90
2019-01-29T08:02:42.930Z,0.90
2019-01-29T08:05:12.148Z,0.90
2019-01-29T08:07:40.589Z,0.90
2019-01-29T08:10:11.946Z,0.90
2019-01-29T08:12:40.664Z,0.90
2019-01-29T08:15:14.907Z,1.00
2019-01-29T08:17:43.571Z,1.00
2019-01-29T08:20:13.372Z,1.00
2019-01-29T08:22:41.846Z,1.10
2019-01-29T08:25:12.041Z,1.10
2019-01-29T08:27:40.515Z,1.10
2019-01-29T08:30:15.455Z,1.20
2019-01-29T08:32:43.815Z,1.20
2019-01-29T08:35:13.920Z,1.40
2019-01-29T08:37:42.406Z,1.50
2019-01-29T08:40:12.515Z,1.70
2019-01-29T08:42:40.882Z,1.80
2019-01-29T08:45:15.357Z,1.70
2019-01-29T08:47:44.024Z,1.70
2019-01-29T08:50:16.066Z,1.70
2019-01-29T08:52:45.155Z,1.60
2019-01-29T08:55:13.515Z,1.50
2019-01-29T08:57:41.874Z,1.50
2019-01-29T09:00:13.622Z,1.50
2019-01-29T09:02:42.004Z,1.50
2019-01-29T09:05:10.887Z,1.50
2019-01-29T09:07:39.282Z,1.50
2019-01-29T09:10:10.947Z,1.50
2019-01-29T09:12:39.319Z,1.50
2019-01-29T09:15:11.071Z,1.60
2019-01-29T09:17:39.437Z,1.60
2019-01-29T09:20:10.639Z,1.70
2019-01-29T09:22:39.399Z,1.80
2019-01-29T09:25:19.130Z,1.80
2019-01-29T09:27:40.514Z,1.90
2019-01-29T09:30:12.388Z,1.90
2019-01-29T09:32:40.814Z,2.00
2019-01-29T09:35:09.127Z,1.90
2019-01-29T09:37:37.535Z,1.80
2019-01-29T09:40:11.807Z,1.80
2019-01-29T09:42:40.480Z,1.70
2019-01-29T09:45:12.184Z,1.70
2019-01-29T09:47:40.615Z,1.70
2019-01-29T09:50:12.086Z,1.70
2019-01-29T09:52:42.341Z,1.70
2019-01-29T09:55:13.758Z,1.70
2019-01-29T09:57:42.047Z,1.80
2019-01-29T10:00:25.804Z,1.80
2019-01-29T10:02:54.166Z,1.80
2019-01-29T10:05:22.595Z,1.80
2019-01-29T10:07:51.411Z,1.80
2019-01-29T10:10:19.783Z,1.80
2019-01-29T10:12:48.495Z,1.80
2019-01-29T10:15:25.449Z,1.80
2019-01-29T10:17:53.987Z,1.80
2019-01-29T10:20:22.764Z,1.90
2019-01-29T10:22:51.203Z,1.80
2019-01-29T10:25:19.560Z,1.80
2019-01-29T10:27:47.930Z,1.90
2019-01-29T10:30:22.169Z,2.00
2019-01-29T10:32:50.537Z,2.10
2019-01-29T10:35:23.800Z,2.30
2019-01-29T10:37:52.213Z,2.40
2019-01-29T10:40:27.795Z,2.70
2019-01-29T10:42:57.125Z,2.90
2019-01-29T10:45:27.328Z,2.90
2019-01-29T10:47:55.695Z,2.90
2019-01-29T10:50:28.079Z,3.10
2019-01-29T10:52:56.448Z,3.30
2019-01-29T10:55:26.011Z,3.30
2019-01-29T10:57:54.419Z,3.40
2019-01-29T11:00:39.905Z,3.60
2019-01-29T11:03:09.675Z,3.70
2019-01-29T11:05:38.372Z,3.90
2019-01-29T11:08:06.731Z,4.20
2019-01-29T11:10:36.055Z,4.80
2019-01-29T11:13:07.318Z,5.40
2019-01-29T11:15:40.571Z,5.90
2019-01-29T11:18:11.566Z,6.20
2019-01-29T11:20:39.926Z,6.00
2019-01-29T11:23:08.327Z,5.70
2019-01-29T11:25:36.724Z,5.30
2019-01-29T11:28:05.572Z,5.10
2019-01-29T11:30:34.439Z,5.00
2019-01-29T11:33:02.800Z,5.90
2019-01-29T11:35:31.158Z,6.40
2019-01-29T11:37:59.492Z,6.50
2019-01-29T11:40:32.145Z,6.30
2019-01-29T11:43:00.674Z,6.30
2019-01-29T11:45:44.962Z,6.30
2019-01-29T11:48:13.619Z,6.40
2019-01-29T11:50:42.367Z,6.40
2019-01-29T11:53:10.718Z,6.40
2019-01-29T11:55:39.082Z,6.50
2019-01-29T11:58:08.483Z,6.50
2019-01-29T12:00:39.373Z,6.70
2019-01-29T12:03:07.846Z,6.90
2019-01-29T12:05:36.503Z,7.20
2019-01-29T12:08:07.340Z,7.50
2019-01-29T12:10:35.776Z,7.40
2019-01-29T12:13:04.676Z,7.50
2019-01-29T12:15:33.098Z,7.50
2019-01-29T12:18:01.439Z,7.30
2019-01-29T12:20:30.176Z,6.60
2019-01-29T12:22:58.563Z,5.90
2019-01-29T12:25:27.219Z,5.70
2019-01-29T12:27:55.671Z,5.60
2019-01-29T12:30:29.863Z,5.30
2019-01-29T12:33:00.055Z,4.80
2019-01-29T12:35:28.763Z,4.50
2019-01-29T12:37:57.162Z,4.40
2019-01-29T12:40:25.528Z,4.40
2019-01-29T12:42:53.895Z,4.40
2019-01-29T12:45:22.290Z,4.60
2019-01-29T12:47:50.655Z,4.60
2019-01-29T12:50:24.847Z,4.70
2019-01-29T12:52:56.227Z,4.50
2019-01-29T12:55:24.591Z,4.60
2019-01-29T12:57:52.959Z,4.50
2019-01-29T13:00:23.007Z,4.50
2019-01-29T13:02:51.363Z,4.50
2019-01-29T13:05:19.733Z,4.30
2019-01-29T13:07:48.487Z,4.20
2019-01-29T13:10:19.542Z,4.10
2019-01-29T13:12:47.902Z,4.00
2019-01-29T13:15:19.576Z,3.90
2019-01-29T13:17:47.931Z,3.80
2019-01-29T13:20:16.402Z,3.80
2019-01-29T13:22:44.722Z,3.70
2019-01-29T13:25:14.327Z,3.70
2019-01-29T13:27:43.033Z,3.60
2019-01-29T13:30:14.684Z,3.70
2019-01-29T13:32:43.051Z,3.60
2019-01-29T13:35:11.656Z,3.60
2019-01-29T13:37:41.125Z,3.60
2019-01-29T13:40:12.230Z,3.60
2019-01-29T13:42:40.587Z,3.60
2019-01-29T13:45:11.855Z,3.60
2019-01-29T13:47:40.214Z,3.60
2019-01-29T13:50:11.839Z,3.60
2019-01-29T13:52:40.241Z,3.70
2019-01-29T13:55:11.743Z,3.70
2019-01-29T13:57:40.105Z,3.70
2019-01-29T14:00:18.363Z,3.60
2019-01-29T14:02:46.990Z,3.60
2019-01-29T14:05:15.679Z,3.50
2019-01-29T14:07:44.176Z,3.40
2019-01-29T14:10:16.652Z,3.40
2019-01-29T14:12:45.178Z,3.30
2019-01-29T14:15:24.735Z,3.30
2019-01-29T14:17:53.100Z,3.30
2019-01-29T14:20:21.459Z,3.30
2019-01-29T14:22:49.863Z,3.30
2019-01-29T14:25:18.227Z,3.30
2019-01-29T14:27:46.592Z,3.20
2019-01-29T14:30:17.927Z,3.20
2019-01-29T14:32:46.625Z,3.10
2019-01-29T14:35:14.987Z,3.00
2019-01-29T14:38:02.773Z,3.00
2019-01-29T14:40:33.468Z,3.00
2019-01-29T14:43:01.827Z,3.00
2019-01-29T14:45:33.918Z,3.00
2019-01-29T14:48:02.280Z,3.00
2019-01-29T14:50:30.815Z,3.00
2019-01-29T14:52:59.582Z,2.90
2019-01-29T14:55:27.937Z,2.80
2019-01-29T14:57:56.295Z,2.70
2019-01-29T15:00:37.658Z,2.60
2019-01-29T15:03:06.064Z,2.60
2019-01-29T15:05:35.715Z,2.50
2019-01-29T15:08:04.282Z,2.50
2019-01-29T15:10:32.986Z,2.50
2019-01-29T15:13:01.356Z,2.40
2019-01-29T15:15:34.300Z,2.30
2019-01-29T15:18:21.167Z,2.30
2019-01-29T15:20:50.508Z,2.20
2019-01-29T15:23:18.940Z,2.20
2019-01-29T15:25:47.372Z,2.20
2019-01-29T15:28:16.159Z,2.40
2019-01-29T15:30:44.922Z,2.50
2019-01-29T15:33:13.291Z,2.60
2019-01-29T15:35:41.686Z,2.60
2019-01-29T15:38:10.052Z,2.60
2019-01-29T15:40:38.420Z,2.60
2019-01-29T15:43:07.027Z,2.60
2019-01-29T15:45:35.396Z,2.50
2019-01-29T15:48:03.767Z,2.50
2019-01-29T15:50:33.907Z,2.40
2019-01-29T15:53:02.623Z,2.40
2019-01-29T15:55:30.986Z,2.30
2019-01-29T15:57:59.699Z,2.20
2019-01-29T16:00:35.264Z,2.20
2019-01-29T16:03:04.302Z,2.00
2019-01-29T16:05:34.980Z,1.90
2019-01-29T16:08:07.934Z,1.90
2019-01-29T16:10:39.767Z,1.80
2019-01-29T16:13:08.503Z,1.70
2019-01-29T16:15:36.867Z,1.70
2019-01-29T16:18:06.552Z,1.60
2019-01-29T16:20:34.910Z,1.60
2019-01-29T16:23:03.599Z,1.40
2019-01-29T16:25:33.543Z,1.40
2019-01-29T16:28:01.906Z,1.40
2019-01-29T16:30:32.469Z,1.30
2019-01-29T16:33:00.861Z,1.20
2019-01-29T16:35:34.548Z,1.20
2019-01-29T16:38:02.906Z,1.10
2019-01-29T16:40:35.228Z,1.10
2019-01-29T16:43:03.586Z,1.00
2019-01-29T16:45:33.502Z,1.00
2019-01-29T16:48:02.643Z,1.00
2019-01-29T16:50:31.015Z,0.90
2019-01-29T16:52:59.552Z,0.90
2019-01-29T16:55:28.035Z,0.80
2019-01-29T16:57:56.716Z,0.80
2019-01-29T17:00:28.403Z,0.80
2019-01-29T17:02:57.630Z,0.70
2019-01-29T17:05:26.470Z,0.70
2019-01-29T17:07:54.827Z,0.70
2019-01-29T17:10:26.210Z,0.70
2019-01-29T17:12:54.888Z,0.70
2019-01-29T17:15:31.139Z,0.70
2019-01-29T17:18:00.539Z,0.70
2019-01-29T17:20:44.054Z,0.60
2019-01-29T17:23:12.487Z,0.60
2019-01-29T17:25:40.851Z,0.60
2019-01-29T17:28:09.254Z,0.60
2019-01-29T17:30:44.846Z,0.60
2019-01-29T17:33:15.940Z,0.50
2019-01-29T17:35:44.457Z,0.50
2019-01-29T17:38:12.786Z,0.50
2019-01-29T17:40:41.262Z,0.50
2019-01-29T17:43:09.627Z,0.40
2019-01-29T17:45:43.519Z,0.40
2019-01-29T17:48:11.923Z,0.40
2019-01-29T17:50:44.790Z,0.30
2019-01-29T17:53:13.163Z,0.20
2019-01-29T17:55:43.922Z,0.20
2019-01-29T17:58:13.038Z,0.20
2019-01-29T18:00:43.393Z,0.20
2019-01-29T18:03:12.075Z,0.20
2019-01-29T18:05:40.793Z,0.20
2019-01-29T18:08:09.160Z,0.20
2019-01-29T18:10:37.581Z,0.20
2019-01-29T18:13:06.840Z,0.20
2019-01-29T18:15:35.202Z,0.10
2019-01-29T18:18:04.652Z,0.10
2019-01-29T18:20:33.020Z,0.10
2019-01-29T18:23:01.499Z,0.10
2019-01-29T18:25:29.898Z,0.10
2019-01-29T18:28:01.252Z,0.10
2019-01-29T18:30:31.084Z,0.10
2019-01-29T18:32:59.488Z,0.10
2019-01-29T18:35:28.242Z,0.00
2019-01-29T18:37:56.612Z,0.00
2019-01-29T18:40:28.770Z,0.00
2019-01-29T18:42:57.142Z,0.00
2019-01-29T18:45:25.535Z,0.00
2019-01-29T18:47:54.232Z,0.00
2019-01-29T18:50:22.918Z,0.00
2019-01-29T18:52:51.735Z,-0.10
2019-01-29T18:55:20.144Z,-0.10
2019-01-29T18:57:48.791Z,-0.10
2019-01-29T19:00:19.291Z,-0.10
2019-01-29T19:02:48.384Z,-0.10
2019-01-29T19:05:17.600Z,-0.10
2019-01-29T19:07:45.967Z,-0.20
2019-01-29T19:10:19.101Z,-0.10
2019-01-29T19:12:49.654Z,-0.10
2019-01-29T19:15:21.391Z,-0.20
2019-01-29T19:17:51.268Z,-0.20
2019-01-29T19:20:26.746Z,-0.20
2019-01-29T19:22:55.227Z,-0.30
2019-01-29T19:25:23.925Z,-0.30
2019-01-29T19:27:52.299Z,-0.30
2019-01-29T19:30:26.291Z,-0.30
2019-01-29T19:32:55.011Z,-0.30
2019-01-29T19:35:23.733Z,-0.30
2019-01-29T19:37:53.371Z,-0.30
2019-01-29T19:40:21.739Z,-0.40
2019-01-29T19:42:50.107Z,-0.40
2019-01-29T19:45:21.510Z,-0.50
2019-01-29T19:47:49.798Z,-0.60
2019-01-29T19:50:23.155Z,-0.60
2019-01-29T19:52:51.644Z,-0.70
2019-01-29T19:55:20.354Z,-0.70
2019-01-29T19:57:49.073Z,-0.80
2019-01-29T20:00:30.304Z,-0.80
2019-01-29T20:02:59.035Z,-0.70
2019-01-29T20:05:27.404Z,-0.70
2019-01-29T20:07:55.808Z,-0.70
2019-01-29T20:10:24.175Z,-0.70
2019-01-29T20:12:52.606Z,-0.60
2019-01-29T20:15:23.443Z,-0.60
2019-01-29T20:17:54.759Z,-0.60
2019-01-29T20:20:25.871Z,-0.50
2019-01-29T20:22:55.071Z,-0.50
2019-01-29T20:25:23.800Z,-0.60
2019-01-29T20:27:53.163Z,-0.60
2019-01-29T20:30:26.784Z,-0.60
2019-01-29T20:32:55.492Z,-0.70
2019-01-29T20:35:24.184Z,-0.60
2019-01-29T20:37:52.586Z,-0.60
2019-01-29T20:40:22.695Z,-0.60
2019-01-29T20:42:51.133Z,-0.60
2019-01-29T20:45:21.677Z,-0.60
2019-01-29T20:47:52.478Z,-0.50
2019-01-29T20:50:23.899Z,-0.60
2019-01-29T20:52:52.312Z,-0.60
2019-01-29T20:55:20.688Z,-0.60
2019-01-29T20:57:49.291Z,-0.60
2019-01-29T21:00:20.356Z,-0.50
2019-01-29T21:02:48.725Z,-0.60
2019-01-29T21:05:17.466Z,-0.50
2019-01-29T21:07:46.163Z,-0.50
2019-01-29T21:10:17.131Z,-0.60
2019-01-29T21:12:45.791Z,-0.60
2019-01-29T21:15:16.436Z,-0.60
2019-01-29T21:17:45.047Z,-0.60
2019-01-29T21:20:17.366Z,-0.60
2019-01-29T21:22:46.019Z,-0.60
2019-01-29T21:25:14.559Z,-0.60
2019-01-29T21:27:43.250Z,-0.60
2019-01-29T21:30:20.172Z,-0.60
2019-01-29T21:32:48.819Z,-0.60
2019-01-29T21:35:17.512Z,-0.60
2019-01-29T21:37:46.206Z,-0.60
2019-01-29T21:40:16.484Z,-0.60
2019-01-29T21:42:44.847Z,-0.60
2019-01-29T21:45:16.763Z,-0.60
2019-01-29T21:47:45.399Z,-0.60
2019-01-29T21:50:18.918Z,-0.60
2019-01-29T21:52:47.334Z,-0.70
2019-01-29T21:55:16.280Z,-0.70
2019-01-29T21:57:44.651Z,-0.70
2019-01-29T22:00:32.787Z,-0.70
2019-01-29T22:03:01.228Z,-0.70
2019-01-29T22:05:29.590Z,-0.70
2019-01-29T22:07:58.003Z,-0.80
2019-01-29T22:10:26.372Z,-0.80
2019-01-29T22:12:54.734Z,-0.80
2019-01-29T22:15:26.236Z,-0.90
2019-01-29T22:17:54.607Z,-0.90
2019-01-29T22:20:24.319Z,-0.90
2019-01-29T22:22:55.039Z,-0.90
2019-01-29T22:25:24.435Z,-1.00
2019-01-29T22:27:52.803Z,-1.00
2019-01-29T22:30:30.446Z,-1.10
2019-01-29T22:32:58.815Z,-1.10
2019-01-29T22:35:27.183Z,-1.00
2019-01-29T22:37:55.599Z,-1.00
2019-01-29T22:40:31.340Z,-1.00
2019-01-29T22:43:00.983Z,-1.00
2019-01-29T22:45:29.356Z,-1.00
2019-01-29T22:47:57.723Z,-1.00
2019-01-29T22:50:31.807Z,-1.00
2019-01-29T22:53:00.177Z,-1.00
2019-01-29T22:55:28.542Z,-0.90
2019-01-29T22:57:57.674Z,-1.00
2019-01-29T23:00:55.615Z,-0.90
2019-01-29T23:03:32.799Z,-0.90
2019-01-29T23:06:22.470Z,-0.90
2019-01-29T23:08:50.884Z,-0.90
2019-01-29T23:11:19.257Z,-0.90
2019-01-29T23:13:47.629Z,-0.90
2019-01-29T23:16:16.314Z,-0.90
2019-01-29T23:18:44.611Z,-0.90
2019-01-29T23:21:12.988Z,-0.90
2019-01-29T23:23:41.699Z,-0.90
2019-01-29T23:26:10.708Z,-0.90
2019-01-29T23:28:39.072Z,-0.90
2019-01-29T23:31:07.780Z,-0.90
2019-01-29T23:33:36.147Z,-0.90
2019-01-29T23:36:05.532Z,-0.90
2019-01-29T23:38:33.904Z,-0.90
2019-01-29T23:41:02.274Z,-0.90
2019-01-29T23:43:30.760Z,-1.00
2019-01-29T23:45:59.398Z,-0.90
2019-01-29T23:48:28.105Z,-0.90
2019-01-29T23:50:56.886Z,-0.90
2019-01-29T23:53:25.363Z,-0.90
2019-01-29T23:55:53.736Z,-0.90
2019-01-29T23:58:23.949Z,-0.90
